Time;durP1;ratioP1;P1;durP2;ratioP2;P2;SDS_P1;SDS_P2;PMS_P1;PMS_P2;Temp;Humidity;BMP_temperature;BMP_pressure;BME280_temperature;BME280_humidity;BME280_pressure;Samples;Min_cycle;Max_cycle;Signal;HPM_P1;HPM_P2
2023/10/10 00:02:36;;;;;;;9.20;3.90;;;14.70;99.90;;;;;;5199432;28;20135;-68
2023/10/10 00:05:12;;;;;;;11.88;4.50;;;14.70;99.90;;;;;;5209643;28;20382;-70
2023/10/10 00:07:44;;;;;;;7.50;3.15;;;14.80;99.90;;;;;;5178152;28;20072;-71
2023/10/10 00:10:21;;;;;;;6.57;3.25;;;14.70;99.90;;;;;;5178728;28;20666;-68
2023/10/10 00:12:56;;;;;;;7.97;3.58;;;14.40;99.90;;;;;;5201604;28;20024;-68
2023/10/10 00:15:37;;;;;;;7.05;3.25;;;14.20;99.90;;;;;;5159029;28;20047;-68
2023/10/10 00:18:12;;;;;;;6.85;3.53;;;14.00;99.90;;;;;;5193808;28;20058;-69
2023/10/10 00:20:46;;;;;;;;;;;13.90;99.90;;;;;;5162061;28;20056;-66
2023/10/10 00:23:18;;;;;;;5.87;3.30;;;13.90;99.90;;;;;;5193046;28;19921;-69
2023/10/10 00:25:57;;;;;;;5.85;3.00;;;13.90;99.90;;;;;;5211909;28;20036;-68
2023/10/10 00:28:35;;;;;;;7.57;3.53;;;13.90;99.90;;;;;;5227348;28;20021;-69
2023/10/10 00:31:10;;;;;;;4.35;2.47;;;13.90;99.90;;;;;;5177768;28;20053;-66
2023/10/10 00:33:45;;;;;;;5.30;3.00;;;14.20;99.90;;;;;;5188321;28;20044;-70
2023/10/10 00:36:31;;;;;;;7.22;2.63;;;14.60;99.90;;;;;;5210642;28;20229;-68
2023/10/10 00:39:08;;;;;;;4.35;2.72;;;14.70;99.90;;;;;;5175559;28;20155;-68
2023/10/10 00:41:52;;;;;;;7.68;3.15;;;14.90;99.90;;;;;;5216375;28;20055;-69
2023/10/10 00:44:25;;;;;;;8.13;3.47;;;14.90;99.90;;;;;;5196793;28;20041;-67
2023/10/10 00:47:03;;;;;;;6.17;2.97;;;14.90;99.90;;;;;;5193581;28;20292;-71
2023/10/10 00:49:36;;;;;;;4.07;2.30;;;15.00;90.50;;;;;;5230452;28;20047;-67
2023/10/10 00:52:10;;;;;;;5.88;2.80;;;15.00;74.20;;;;;;5192969;28;20045;-68
2023/10/10 00:54:46;;;;;;;7.38;3.60;;;15.00;89.10;;;;;;5212855;28;20616;-67
2023/10/10 00:57:21;;;;;;;10.10;3.53;;;15.10;46.90;;;;;;5211163;28;20055;-70
2023/10/10 00:59:56;;;;;;;5.90;2.35;;;15.00;70.10;;;;;;5195253;28;20221;-70
2023/10/10 01:02:31;;;;;;;5.55;2.63;;;15.00;97.40;;;;;;5217272;23;20058;-62
2023/10/10 01:05:23;;;;;;;6.85;2.30;;;15.10;23.30;;;;;;5113434;28;20049;-63
2023/10/10 01:07:59;;;;;;;5.20;2.65;;;15.10;1.00;;;;;;5131243;28;20052;-62
2023/10/10 01:10:43;;;;;;;4.85;2.92;;;15.10;1.00;;;;;;5145806;28;20360;-63
2023/10/10 01:13:19;;;;;;;8.13;3.07;;;15.20;1.00;;;;;;5157948;28;20045;-62
2023/10/10 01:15:50;;;;;;;4.40;2.53;;;15.10;1.00;;;;;;5169633;28;20288;-60
2023/10/10 01:18:24;;;;;;;5.75;2.78;;;15.10;1.00;;;;;;5135473;28;20048;-62
2023/10/10 01:21:02;;;;;;;11.75;3.38;;;15.20;1.00;;;;;;5136191;28;20388;-62
2023/10/10 01:23:37;;;;;;;7.55;3.63;;;15.10;1.00;;;;;;5148075;28;20226;-61
2023/10/10 01:26:09;;;;;;;7.72;2.90;;;15.20;1.00;;;;;;5151232;28;20439;-62
2023/10/10 01:28:43;;;;;;;6.60;2.80;;;15.30;1.00;;;;;;5171636;28;20094;-60
2023/10/10 01:31:18;;;;;;;3.75;2.60;;;15.20;1.00;;;;;;5136581;28;20046;-61
2023/10/10 01:33:51;;;;;;;3.78;2.67;;;15.20;1.00;;;;;;5162830;28;20052;-62
2023/10/10 01:36:29;;;;;;;9.82;3.47;;;15.10;23.80;;;;;;5172429;28;20273;-61
2023/10/10 01:39:23;;;;;;;9.45;3.17;;;15.10;26.80;;;;;;5154155;28;20520;-61
2023/10/10 01:42:02;;;;;;;9.90;2.55;;;14.90;99.90;;;;;;5151650;28;20223;-60
2023/10/10 01:44:42;;;;;;;7.93;3.47;;;14.90;99.90;;;;;;5152197;28;20036;-60
2023/10/10 01:47:25;;;;;;;5.18;3.55;;;14.80;99.90;;;;;;5151099;28;20091;-61
2023/10/10 01:49:58;;;;;;;4.72;2.55;;;14.80;99.90;;;;;;5171136;28;20440;-61
2023/10/10 01:52:46;;;;;;;12.20;3.58;;;14.80;99.90;;;;;;5151360;28;20057;-61
2023/10/10 01:55:18;;;;;;;7.03;3.58;;;14.50;99.90;;;;;;5170860;28;20052;-62
2023/10/10 01:57:51;;;;;;;7.65;3.50;;;14.20;99.90;;;;;;5157200;28;20038;-64
2023/10/10 02:02:57;;;;;;;;;;;13.60;99.90;;;;;;5179481;28;20044;-61
2023/10/10 02:08:17;;;;;;;11.25;3.03;;;13.30;99.90;;;;;;5166248;28;20034;-59
2023/10/10 02:10:49;;;;;;;9.43;4.28;;;13.20;99.90;;;;;;5152462;28;20034;-60
2023/10/10 02:13:22;;;;;;;7.50;4.05;;;13.10;99.90;;;;;;5160299;28;20328;-59
2023/10/10 02:15:55;;;;;;;5.70;3.28;;;13.10;99.90;;;;;;5112770;28;20034;-61
2023/10/10 02:18:39;;;;;;;7.97;3.15;;;12.90;99.90;;;;;;5146166;28;20047;-61
2023/10/10 02:21:17;;;;;;;10.70;4.00;;;12.90;99.90;;;;;;5145324;28;20042;-61
2023/10/10 02:23:53;;;;;;;9.85;3.92;;;12.90;99.90;;;;;;5128703;28;20156;-60
2023/10/10 02:26:35;;;;;;;6.05;3.58;;;12.90;99.90;;;;;;5149588;28;20034;-60
2023/10/10 02:32:14;;;;;;;8.25;3.55;;;12.80;99.90;;;;;;5105128;28;20051;-61
2023/10/10 02:35:15;;;;;;;11.55;3.50;;;12.80;99.90;;;;;;5073420;28;20051;-60
2023/10/10 02:37:54;;;;;;;9.52;3.58;;;12.80;99.90;;;;;;5108648;29;20027;-61
2023/10/10 02:40:31;;;;;;;8.30;4.63;;;12.80;99.90;;;;;;5092690;28;20539;-61
2023/10/10 02:43:33;;;;;;;17.98;4.68;;;12.80;99.90;;;;;;5090124;28;20358;-61
2023/10/10 02:46:05;;;;;;;8.82;3.75;;;12.80;99.90;;;;;;5076036;29;20039;-60
2023/10/10 02:48:42;;;;;;;6.78;3.53;;;12.70;99.90;;;;;;5092263;29;20362;-62
2023/10/10 02:51:16;;;;;;;5.45;3.05;;;12.80;99.90;;;;;;5080962;28;20170;-58
2023/10/10 02:53:51;;;;;;;;;;;12.80;99.90;;;;;;5091658;29;20095;-60
2023/10/10 02:56:24;;;;;;;;;;;12.80;99.90;;;;;;5104026;28;19923;-61
2023/10/10 02:58:58;;;;;;;9.35;3.25;;;12.90;99.90;;;;;;5107952;28;20449;-60
2023/10/10 03:02:09;;;;;;;8.15;3.03;;;12.90;99.90;;;;;;5089655;29;20035;-60
2023/10/10 03:04:52;;;;;;;8.65;2.95;;;13.00;99.90;;;;;;5101070;29;20043;-61
2023/10/10 03:07:28;;;;;;;9.00;3.08;;;13.00;99.90;;;;;;5132397;28;20049;-59
2023/10/10 03:13:03;;;;;;;11.55;3.47;;;13.00;99.90;;;;;;5147194;28;20371;-61
2023/10/10 03:15:37;;;;;;;10.05;3.92;;;13.10;99.90;;;;;;5148322;28;20046;-61
2023/10/10 03:18:28;;;;;;;11.85;4.05;;;13.10;99.90;;;;;;5132719;28;20079;-61
2023/10/10 03:24:07;;;;;;;7.20;4.13;;;13.30;99.90;;;;;;5144420;28;20101;-61
2023/10/10 03:29:36;;;;;;;4.28;3.00;;;13.40;99.90;;;;;;5141717;28;20050;-62
2023/10/10 03:35:05;;;;;;;8.27;3.25;;;13.60;99.90;;;;;;5140650;28;20038;-62
2023/10/10 03:37:53;;;;;;;6.03;3.17;;;13.70;99.90;;;;;;5161492;28;20053;-61
2023/10/10 03:41:04;;;;;;;7.50;4.13;;;13.80;99.90;;;;;;5115759;28;20046;-61
2023/10/10 05:23:34;;;;;;;9.68;3.63;;;13.70;99.90;;;;;;5134851;28;20501;-62
2023/10/10 05:26:14;;;;;;;7.10;3.35;;;13.70;99.90;;;;;;5138117;28;20050;-62
2023/10/10 05:28:56;;;;;;;6.80;3.42;;;13.70;99.90;;;;;;5144888;28;20054;-61
2023/10/10 05:31:30;;;;;;;8.57;3.78;;;13.80;99.90;;;;;;5145350;28;20038;-60
2023/10/10 05:34:02;;;;;;;;;;;13.90;99.90;;;;;;5124898;28;20047;-63
2023/10/10 05:36:36;;;;;;;7.63;2.60;;;13.90;99.90;;;;;;5139815;28;20278;-62
2023/10/10 05:39:17;;;;;;;9.23;3.50;;;13.90;99.90;;;;;;5132509;28;20050;-61
2023/10/10 05:41:54;;;;;;;11.68;3.53;;;14.00;99.90;;;;;;5144187;28;20048;-60
2023/10/10 05:44:25;;;;;;;7.82;3.70;;;14.10;99.90;;;;;;5150774;28;20037;-60
2023/10/10 05:46:57;;;;;;;8.57;3.20;;;14.20;99.90;;;;;;5148124;28;20044;-61
2023/10/10 05:49:33;;;;;;;6.20;3.90;;;14.30;99.90;;;;;;5146664;28;20181;-61
2023/10/10 05:52:12;;;;;;;4.45;2.47;;;14.40;99.90;;;;;;5142144;28;20111;-60
2023/10/10 05:54:51;;;;;;;5.32;3.60;;;14.50;99.90;;;;;;5137435;28;20034;-61
2023/10/10 05:57:23;;;;;;;7.32;2.78;;;14.70;99.90;;;;;;5156145;28;20060;-61
2023/10/10 05:59:58;;;;;;;10.90;3.38;;;14.80;99.90;;;;;;5145447;28;20244;-61
2023/10/10 06:02:32;;;;;;;7.68;3.30;;;14.90;99.90;;;;;;5114257;28;20055;-61
2023/10/10 06:05:05;;;;;;;7.10;3.60;;;15.10;99.90;;;;;;5137741;28;20067;-61
2023/10/10 06:07:43;;;;;;;4.25;3.45;;;15.30;99.90;;;;;;5146613;28;20030;-60
2023/10/10 06:10:17;;;;;;;13.20;3.40;;;15.40;99.90;;;;;;5127958;28;20043;-60
2023/10/10 06:12:55;;;;;;;6.93;3.58;;;15.40;99.90;;;;;;5115535;28;20301;-61
2023/10/10 06:15:28;;;;;;;5.32;3.38;;;15.50;99.90;;;;;;5132214;28;20043;-62
2023/10/10 06:18:13;;;;;;;12.20;3.45;;;15.60;99.90;;;;;;5111947;28;20675;-69
2023/10/10 06:20:50;;;;;;;8.30;3.38;;;15.60;99.90;;;;;;5125361;28;20035;-66
2023/10/10 06:23:27;;;;;;;5.28;3.25;;;15.40;99.90;;;;;;5105105;28;20055;-67
2023/10/10 06:26:01;;;;;;;4.18;2.78;;;15.30;99.90;;;;;;5131024;28;20046;-66
2023/10/10 06:28:37;;;;;;;7.47;3.17;;;15.20;99.90;;;;;;5099819;28;20597;-68
2023/10/10 06:31:12;;;;;;;6.85;2.80;;;15.10;99.90;;;;;;5123806;28;20034;-65
2023/10/10 06:33:44;;;;;;;4.68;3.40;;;15.10;99.90;;;;;;5110557;28;20041;-66
2023/10/10 06:38:59;;;;;;;6.07;2.55;;;15.10;99.90;;;;;;5132025;28;20071;-65
2023/10/10 06:41:47;;;;;;;5.65;2.63;;;15.10;99.90;;;;;;5124172;28;20039;-65
2023/10/10 06:44:35;;;;;;;5.32;2.95;;;15.20;99.90;;;;;;5118763;28;20033;-66
2023/10/10 06:47:13;;;;;;;4.07;2.60;;;15.20;99.90;;;;;;5102080;28;20066;-66
2023/10/10 06:49:46;;;;;;;4.43;3.10;;;15.20;99.90;;;;;;5120015;28;20022;-66
2023/10/10 06:52:23;;;;;;;4.85;2.95;;;15.20;99.90;;;;;;5116815;28;20328;-67
2023/10/10 06:54:55;;;;;;;6.47;2.53;;;15.20;99.90;;;;;;5126106;28;20261;-66
2023/10/10 06:57:36;;;;;;;6.07;3.03;;;15.10;99.90;;;;;;5125380;28;20038;-71
2023/10/10 07:00:21;;;;;;;5.82;2.75;;;14.90;99.90;;;;;;5120207;28;20160;-69
2023/10/10 07:02:54;;;;;;;4.10;2.25;;;14.80;99.90;;;;;;5121029;28;20056;-66
2023/10/10 07:05:33;;;;;;;4.45;2.58;;;14.70;99.90;;;;;;5145469;28;20032;-67
2023/10/10 07:08:19;;;;;;;4.47;2.47;;;14.70;99.90;;;;;;5129130;28;20061;-67
2023/10/10 07:10:53;;;;;;;4.43;2.70;;;14.70;99.90;;;;;;5142810;28;20329;-72
2023/10/10 07:13:30;;;;;;;6.65;2.78;;;14.70;99.90;;;;;;5112700;28;20068;-66
2023/10/10 07:16:01;;;;;;;3.08;2.70;;;14.70;99.90;;;;;;5132495;28;20041;-68
2023/10/10 07:18:33;;;;;;;3.53;2.67;;;14.60;99.90;;;;;;5114550;28;20042;-67
2023/10/10 07:21:23;;;;;;;7.55;3.28;;;14.60;99.90;;;;;;5125407;28;20046;-66
2023/10/10 07:24:13;;;;;;;5.22;2.83;;;14.60;99.90;;;;;;5125359;28;20042;-65
2023/10/10 07:26:58;;;;;;;4.57;2.97;;;14.60;99.90;;;;;;5126389;28;20445;-65
2023/10/10 07:29:57;;;;;;;4.28;2.70;;;14.60;99.90;;;;;;5136912;28;20053;-64
2023/10/10 07:32:28;;;;;;;9.20;3.17;;;14.60;99.90;;;;;;5139352;28;20038;-64
2023/10/10 07:35:02;;;;;;;5.82;3.28;;;14.50;99.90;;;;;;5149854;28;20039;-66
2023/10/10 07:37:41;;;;;;;6.47;3.45;;;14.50;99.90;;;;;;5130004;28;20587;-66
2023/10/10 07:42:50;;;;;;;3.38;2.92;;;14.60;99.90;;;;;;5128666;28;20046;-72
2023/10/10 07:45:33;;;;;;;5.83;3.33;;;14.60;99.90;;;;;;5112191;28;20052;-67
2023/10/10 07:50:47;;;;;;;;;;;14.70;99.90;;;;;;5146125;28;20203;-66
2023/10/10 07:53:20;;;;;;;7.32;3.38;;;14.80;99.90;;;;;;5121111;28;20193;-66
2023/10/10 07:56:00;;;;;;;6.32;3.80;;;14.80;99.90;;;;;;5135395;28;20278;-65
2023/10/10 07:58:50;;;;;;;6.95;2.95;;;14.90;99.90;;;;;;5129167;28;20038;-66
2023/10/10 08:01:24;;;;;;;4.88;3.15;;;14.90;99.90;;;;;;5149629;28;20125;-66
2023/10/10 08:03:55;;;;;;;;;;;15.00;99.90;;;;;;5121130;28;20065;-67
2023/10/10 08:06:27;;;;;;;3.83;3.17;;;15.00;99.90;;;;;;5090508;28;19933;-69
2023/10/10 08:11:54;;;;;;;7.85;3.83;;;14.90;99.90;;;;;;5134479;28;20313;-70
2023/10/10 08:14:31;;;;;;;6.20;3.40;;;14.90;99.90;;;;;;5105273;28;20346;-68
2023/10/10 08:17:18;;;;;;;5.53;3.72;;;14.90;99.90;;;;;;5133823;28;20229;-72
2023/10/10 08:19:53;;;;;;;7.97;3.25;;;15.00;99.90;;;;;;5134495;28;20046;-66
2023/10/10 08:22:30;;;;;;;4.32;2.80;;;15.00;99.90;;;;;;5134356;28;20061;-65
2023/10/10 08:25:01;;;;;;;4.28;2.85;;;15.00;99.90;;;;;;5115102;28;20057;-68
2023/10/10 08:27:38;;;;;;;5.30;3.25;;;15.10;99.90;;;;;;5137064;28;20197;-66
2023/10/10 08:30:13;;;;;;;11.82;3.90;;;15.10;99.90;;;;;;5134431;28;20077;-65
2023/10/10 08:32:48;;;;;;;5.03;3.47;;;15.20;99.90;;;;;;5119011;28;20043;-65
2023/10/10 08:35:21;;;;;;;8.65;3.53;;;15.30;99.90;;;;;;5114337;28;20047;-67
2023/10/10 08:37:57;;;;;;;7.20;4.03;;;15.50;99.90;;;;;;5120592;28;20319;-66
2023/10/10 08:40:36;;;;;;;7.45;3.58;;;15.60;99.90;;;;;;5120298;28;20174;-67
2023/10/10 08:43:09;;;;;;;6.07;3.22;;;15.60;99.90;;;;;;5104234;28;20216;-65
2023/10/10 08:45:49;;;;;;;7.25;3.58;;;15.70;99.90;;;;;;5127049;28;20182;-68
2023/10/10 08:48:26;;;;;;;8.15;4.05;;;15.70;99.90;;;;;;5121621;28;20057;-69
2023/10/10 08:51:04;;;;;;;9.00;4.32;;;15.90;99.90;;;;;;5118632;28;20046;-68
2023/10/10 08:53:38;;;;;;;9.77;4.10;;;15.80;99.90;;;;;;5116971;28;20302;-67
2023/10/10 08:56:14;;;;;;;9.45;3.63;;;15.70;99.90;;;;;;5134267;28;20069;-67
2023/10/10 08:58:48;;;;;;;6.80;4.25;;;15.70;99.90;;;;;;5118989;28;20054;-68
2023/10/10 09:01:20;;;;;;;9.30;3.63;;;15.60;99.90;;;;;;5121786;28;20142;-66
2023/10/10 09:03:56;;;;;;;7.55;3.90;;;15.60;99.90;;;;;;5127716;28;20022;-67
2023/10/10 09:06:58;;;;;;;5.25;3.90;;;15.60;99.90;;;;;;5133247;28;20042;-66
2023/10/10 09:09:39;;;;;;;10.73;4.10;;;15.60;99.90;;;;;;5138744;28;20042;-69
2023/10/10 09:12:14;;;;;;;9.80;4.40;;;15.70;99.90;;;;;;5113782;28;20026;-65
2023/10/10 09:14:52;;;;;;;9.45;4.78;;;15.70;99.90;;;;;;5157032;28;20038;-68
2023/10/10 09:17:35;;;;;;;7.78;4.65;;;15.80;99.90;;;;;;5156487;28;20516;-67
2023/10/10 09:20:50;;;;;;;8.85;4.50;;;15.80;99.90;;;;;;5127119;28;20046;-66
2023/10/10 09:23:27;;;;;;;9.00;4.47;;;16.00;99.90;;;;;;5101991;28;20377;-69
2023/10/10 09:26:29;;;;;;;7.25;3.83;;;16.50;99.90;;;;;;5135375;28;20350;-66
2023/10/10 09:29:03;;;;;;;6.30;4.45;;;16.90;99.90;;;;;;5153169;28;20064;-63
2023/10/10 09:31:45;;;;;;;9.55;4.45;;;16.90;99.90;;;;;;5150393;28;20339;-63
2023/10/10 09:34:22;;;;;;;5.72;3.80;;;16.90;99.90;;;;;;5119770;28;20061;-66
2023/10/10 09:36:57;;;;;;;10.32;4.80;;;16.90;99.90;;;;;;5107421;28;20346;-64
2023/10/10 09:39:41;;;;;;;8.73;5.00;;;16.80;99.90;;;;;;5161201;28;21229;-70
2023/10/10 09:42:45;;;;;;;12.95;4.40;;;16.90;99.90;;;;;;5132889;28;20725;-66
2023/10/10 09:48:33;;;;;;;8.57;4.03;;;17.00;99.90;;;;;;5161432;28;20316;-64
2023/10/10 09:51:15;;;;;;;8.85;4.50;;;17.10;99.90;;;;;;5153116;28;20039;-65
2023/10/10 09:53:47;;;;;;;9.20;4.30;;;17.40;99.90;;;;;;5146015;28;20300;-65
2023/10/10 09:56:23;;;;;;;7.10;3.83;;;17.50;99.90;;;;;;5122540;28;20363;-64
2023/10/10 09:58:59;;;;;;;10.57;4.07;;;17.60;99.90;;;;;;5142372;28;20060;-63
2023/10/10 10:01:44;;;;;;;9.13;4.82;;;17.60;99.90;;;;;;5153419;28;20018;-63
2023/10/10 10:04:25;;;;;;;7.32;3.97;;;17.80;99.90;;;;;;5156907;28;20049;-64
2023/10/10 10:07:56;;;;;;;7.85;3.28;;;17.80;99.90;;;;;;5142445;28;20057;-64
2023/10/10 10:11:09;;;;;;;8.32;4.05;;;17.90;1.00;;;;;;5106501;29;20027;-64
2023/10/10 10:14:11;;;;;;;7.57;3.88;;;18.20;49.40;;;;;;5145130;28;20069;-64
2023/10/10 10:16:54;;;;;;;10.65;3.55;;;18.60;54.80;;;;;;5157340;28;20365;-67
2023/10/10 10:19:28;;;;;;;7.28;4.32;;;19.30;1.00;;;;;;5144857;28;20227;-64
2023/10/10 10:22:18;;;;;;;7.75;3.72;;;19.90;1.00;;;;;;5150869;28;20048;-63
2023/10/10 10:25:21;;;;;;;7.75;2.92;;;20.40;99.90;;;;;;5142166;28;20038;-63
2023/10/10 10:28:16;;;;;;;7.25;3.45;;;21.10;99.90;;;;;;5145927;28;20046;-62
2023/10/10 10:30:51;;;;;;;8.05;4.45;;;21.20;99.90;;;;;;5142457;28;20598;-63
2023/10/10 10:33:23;;;;;;;5.68;2.95;;;21.20;99.90;;;;;;5143536;28;20296;-62
2023/10/10 10:35:57;;;;;;;6.53;3.40;;;21.40;99.90;;;;;;5144283;28;20038;-62
2023/10/10 10:38:31;;;;;;;7.95;3.17;;;21.50;99.90;;;;;;5129092;28;20047;-62
2023/10/10 10:41:08;;;;;;;4.15;2.85;;;21.60;99.90;;;;;;5158693;28;20034;-62
2023/10/10 10:43:41;;;;;;;4.93;2.92;;;21.90;1.00;;;;;;5159454;28;20042;-62
2023/10/10 10:46:26;;;;;;;8.98;3.22;;;21.60;99.90;;;;;;5143743;28;20038;-61
2023/10/10 10:49:05;;;;;;;5.78;2.90;;;21.60;99.90;;;;;;5133648;28;20121;-61
2023/10/10 10:51:42;;;;;;;6.68;2.97;;;21.20;1.00;;;;;;5146561;28;20037;-61
2023/10/10 10:54:35;;;;;;;5.30;3.40;;;21.20;1.00;;;;;;5112391;28;20047;-64
2023/10/10 10:57:27;;;;;;;8.32;3.30;;;21.20;1.00;;;;;;5144204;28;20072;-62
2023/10/10 10:59:59;;;;;;;9.70;3.10;;;21.80;99.90;;;;;;5145113;28;20038;-62
2023/10/10 11:02:35;;;;;;;9.25;3.35;;;22.10;99.90;;;;;;5122981;28;20042;-62
2023/10/10 11:05:07;;;;;;;7.03;3.03;;;22.30;99.90;;;;;;5145686;28;20046;-64
2023/10/10 11:07:47;;;;;;;10.45;2.83;;;22.60;1.00;;;;;;5135462;28;20030;-64
2023/10/10 11:10:36;;;;;;;12.18;3.30;;;22.70;1.00;;;;;;5109613;28;20481;-62
2023/10/10 11:13:09;;;;;;;7.90;2.90;;;22.70;1.00;;;;;;5144339;28;20041;-62
2023/10/10 11:15:41;;;;;;;6.05;3.05;;;23.20;1.00;;;;;;5142953;28;20045;-62
2023/10/10 11:18:24;;;;;;;7.22;3.35;;;23.60;1.00;;;;;;5146276;28;20038;-62
2023/10/10 11:21:06;;;;;;;7.40;2.83;;;23.90;1.00;;;;;;5140930;28;20050;-62
2023/10/10 11:23:42;;;;;;;7.93;3.13;;;23.70;1.00;;;;;;5152937;28;20064;-62
2023/10/10 11:26:14;;;;;;;10.27;3.20;;;22.90;1.00;;;;;;5145476;28;20046;-62
2023/10/10 11:28:49;;;;;;;4.78;2.60;;;22.70;1.00;;;;;;5121766;28;20038;-62
2023/10/10 11:31:24;;;;;;;6.65;2.95;;;23.00;1.00;;;;;;5134032;28;20029;-62
2023/10/10 11:34:10;;;;;;;6.68;2.83;;;23.20;1.00;;;;;;5125400;28;20039;-62
2023/10/10 11:36:42;;;;;;;5.70;2.42;;;23.80;1.00;;;;;;5112923;28;20043;-62
2023/10/10 11:39:31;;;;;;;8.40;3.15;;;24.60;1.00;;;;;;5126989;28;20042;-63
2023/10/10 11:42:11;;;;;;;6.35;3.17;;;23.90;1.00;;;;;;5160548;28;20042;-63
2023/10/10 11:44:43;;;;;;;8.25;3.72;;;23.40;1.00;;;;;;5139538;28;20050;-63
2023/10/10 11:47:24;;;;;;;7.28;3.17;;;22.60;1.00;;;;;;5159010;28;20031;-63
2023/10/10 11:50:05;;;;;;;12.10;3.58;;;22.30;1.00;;;;;;5140231;28;20042;-63
2023/10/10 11:52:53;;;;;;;7.18;2.92;;;22.40;1.00;;;;;;5139297;28;20531;-63
2023/10/10 11:55:30;;;;;;;8.05;3.78;;;22.90;1.00;;;;;;5139275;28;20466;-63
2023/10/10 11:58:16;;;;;;;7.30;3.13;;;23.40;1.00;;;;;;5127337;28;20046;-63
2023/10/10 12:01:05;;;;;;;4.43;2.63;;;23.90;1.00;;;;;;5135065;28;20042;-63
2023/10/10 12:06:26;;;;;;;6.95;2.60;;;24.50;1.00;;;;;;5116181;28;20402;-64
2023/10/10 12:09:01;;;;;;;7.57;3.20;;;23.80;1.00;;;;;;5108375;28;20054;-62
2023/10/10 12:11:33;;;;;;;7.38;3.55;;;23.30;1.00;;;;;;5097582;28;20207;-64
2023/10/10 12:14:10;;;;;;;6.20;2.53;;;22.40;1.00;;;;;;5095979;28;20048;-62
2023/10/10 12:16:41;;;;;;;8.43;3.38;;;22.30;1.00;;;;;;5120703;28;20047;-64
2023/10/10 12:19:15;;;;;;;5.80;2.75;;;22.60;1.00;;;;;;5108771;28;20035;-62
2023/10/10 12:21:46;;;;;;;11.60;3.85;;;22.40;1.00;;;;;;5076722;28;20043;-64
2023/10/10 12:24:18;;;;;;;7.00;3.63;;;22.00;1.00;;;;;;5109605;28;20046;-61
2023/10/10 12:26:54;;;;;;;6.55;2.60;;;21.70;1.00;;;;;;5108661;28;20034;-61
2023/10/10 12:29:25;;;;;;;7.32;3.20;;;21.70;1.00;;;;;;5104553;28;20051;-61
2023/10/10 12:32:00;;;;;;;4.95;2.90;;;21.80;1.00;;;;;;5085248;28;20045;-63
2023/10/10 12:34:32;;;;;;;3.72;2.55;;;21.90;1.00;;;;;;5091560;28;20038;-63
2023/10/10 12:37:04;;;;;;;4.78;2.53;;;22.00;99.90;;;;;;5092102;28;20043;-62
2023/10/10 12:39:37;;;;;;;8.40;2.90;;;22.10;99.90;;;;;;5109923;28;20107;-61
2023/10/10 12:42:09;;;;;;;4.28;2.45;;;22.00;1.00;;;;;;5092759;28;20035;-61
2023/10/10 12:44:47;;;;;;;6.65;3.10;;;21.70;99.90;;;;;;5108819;28;20652;-61
2023/10/10 12:47:21;;;;;;;4.38;3.00;;;21.60;1.00;;;;;;5084999;28;20617;-61
2023/10/10 12:49:56;;;;;;;7.68;3.13;;;21.40;99.90;;;;;;5106490;28;20049;-62
2023/10/10 12:52:35;;;;;;;4.80;2.83;;;21.40;99.90;;;;;;5093130;28;20038;-61
2023/10/10 12:55:10;;;;;;;4.72;2.60;;;21.20;99.90;;;;;;5126916;28;20045;-61
2023/10/10 12:57:42;;;;;;;7.97;3.00;;;21.10;99.90;;;;;;5124195;28;20034;-61
2023/10/10 13:00:23;;;;;;;4.57;2.83;;;21.20;99.90;;;;;;5105564;28;20354;-62
2023/10/10 13:02:57;;;;;;;7.47;2.90;;;21.10;99.90;;;;;;5122289;28;20461;-63
2023/10/10 13:05:33;;;;;;;7.75;3.03;;;21.00;99.90;;;;;;5107561;28;20039;-62
2023/10/10 13:08:09;;;;;;;6.25;3.05;;;21.10;99.90;;;;;;5112993;28;20034;-62
2023/10/10 13:10:45;;;;;;;4.13;2.53;;;21.30;99.90;;;;;;5128170;28;20037;-63
2023/10/10 13:13:26;;;;;;;5.97;3.10;;;21.50;99.90;;;;;;5129724;28;20111;-62
2023/10/10 13:18:57;;;;;;;2.90;2.33;;;21.70;99.90;;;;;;5135861;28;20038;-62
2023/10/10 13:21:29;;;;;;;3.70;2.00;;;21.70;99.90;;;;;;5148430;28;20052;-62
2023/10/10 13:24:01;;;;;;;11.60;2.63;;;21.70;1.00;;;;;;5148893;28;20038;-62
2023/10/10 13:26:32;;;;;;;4.03;2.38;;;21.70;99.90;;;;;;5138307;28;20042;-62
2023/10/10 13:29:06;;;;;;;6.60;2.50;;;22.00;99.90;;;;;;5151527;28;20027;-62
2023/10/10 13:31:38;;;;;;;5.30;2.20;;;22.50;99.90;;;;;;5134410;28;20030;-62
2023/10/10 13:34:09;;;;;;;5.22;2.72;;;22.40;99.90;;;;;;5129862;28;20065;-62
2023/10/10 13:36:40;;;;;;;6.25;2.97;;;22.20;99.90;;;;;;5148125;28;20057;-62
2023/10/10 13:39:33;;;;;;;6.93;2.90;;;21.90;1.00;;;;;;5149632;28;20023;-62
2023/10/10 13:42:06;;;;;;;6.20;2.67;;;21.70;1.00;;;;;;5148147;28;20057;-62
2023/10/10 13:44:41;;;;;;;5.47;2.83;;;21.50;1.00;;;;;;5150086;28;20034;-62
2023/10/10 13:47:13;;;;;;;5.68;2.53;;;21.30;1.00;;;;;;5125164;28;20042;-61
2023/10/10 13:49:44;;;;;;;5.20;2.67;;;21.20;99.90;;;;;;5130793;28;20385;-61
2023/10/10 13:52:16;;;;;;;12.05;3.05;;;21.10;99.90;;;;;;5147547;28;20052;-61
2023/10/10 13:54:47;;;;;;;6.72;2.33;;;21.10;99.90;;;;;;5149158;28;20057;-61
2023/10/10 13:57:20;;;;;;;7.57;2.70;;;21.10;1.00;;;;;;5125653;28;20057;-61
2023/10/10 13:59:52;;;;;;;7.97;3.00;;;20.90;99.90;;;;;;5131367;28;20042;-63
2023/10/10 14:02:25;;;;;;;6.65;3.25;;;21.00;99.90;;;;;;5146155;28;20064;-61
2023/10/10 14:05:00;;;;;;;5.72;2.58;;;21.10;1.00;;;;;;5131800;28;20056;-61
2023/10/10 14:07:38;;;;;;;5.57;2.85;;;21.10;1.00;;;;;;5128841;28;20043;-61
2023/10/10 14:10:12;;;;;;;6.35;2.90;;;21.00;1.00;;;;;;5141258;28;20548;-61
2023/10/10 14:12:48;;;;;;;6.55;2.83;;;21.00;99.90;;;;;;5141861;28;20173;-61
2023/10/10 14:15:23;;;;;;;6.40;2.78;;;20.90;99.90;;;;;;5161559;28;20044;-61
2023/10/10 14:17:55;;;;;;;13.25;2.90;;;21.00;99.90;;;;;;5161572;28;20026;-62
2023/10/10 14:20:33;;;;;;;4.25;2.63;;;21.40;99.90;;;;;;5129262;28;20030;-62
2023/10/10 14:23:05;;;;;;;4.00;2.72;;;21.60;99.90;;;;;;5131538;28;20030;-62
2023/10/10 14:25:38;;;;;;;5.00;3.05;;;21.80;1.00;;;;;;5157361;28;20043;-61
2023/10/10 14:28:16;;;;;;;3.95;2.97;;;21.60;99.90;;;;;;5142111;28;20046;-62
2023/10/10 14:30:50;;;;;;;8.63;2.85;;;21.40;1.00;;;;;;5106501;28;20045;-61
2023/10/10 14:33:25;;;;;;;7.00;3.78;;;21.20;1.00;;;;;;5140645;28;20043;-62
2023/10/10 14:35:57;;;;;;;7.78;2.92;;;21.10;1.00;;;;;;5140796;28;20035;-62
2023/10/10 14:38:31;;;;;;;5.97;3.00;;;21.30;1.00;;;;;;5142132;28;20034;-62
2023/10/10 14:41:07;;;;;;;7.07;4.13;;;21.40;1.00;;;;;;5142619;28;20038;-62
2023/10/10 14:43:47;;;;;;;7.38;2.60;;;21.70;1.00;;;;;;5139812;28;20022;-62
2023/10/10 14:46:23;;;;;;;4.53;2.78;;;21.40;1.00;;;;;;5140708;28;20476;-62
2023/10/10 14:49:05;;;;;;;6.82;3.45;;;21.30;1.00;;;;;;5144423;28;20034;-62
2023/10/10 14:51:37;;;;;;;7.00;3.40;;;20.90;1.00;;;;;;5129654;28;20444;-61
2023/10/10 14:54:17;;;;;;;4.13;2.67;;;20.70;1.00;;;;;;5134768;28;20462;-62
2023/10/10 14:56:52;;;;;;;4.90;2.60;;;20.70;1.00;;;;;;5108524;28;20045;-61
2023/10/10 14:59:31;;;;;;;4.35;3.28;;;20.50;1.00;;;;;;5155714;28;20038;-61
2023/10/10 15:02:10;;;;;;;6.93;3.17;;;20.30;1.00;;;;;;5119524;28;20042;-61
2023/10/10 15:04:41;;;;;;;7.68;3.13;;;20.30;1.00;;;;;;5129953;28;20476;-61
2023/10/10 15:07:16;;;;;;;6.55;3.28;;;20.20;99.90;;;;;;5142626;28;20030;-61
2023/10/10 15:09:47;;;;;;;;;;;20.20;99.90;;;;;;5141878;28;20053;-61
2023/10/10 15:12:19;;;;;;;7.65;3.10;;;20.10;99.90;;;;;;5144121;28;19924;-61
2023/10/10 15:14:52;;;;;;;8.65;4.28;;;20.00;99.90;;;;;;5142925;28;20465;-62
2023/10/10 15:17:26;;;;;;;8.75;4.15;;;19.90;99.90;;;;;;5138775;28;20072;-61
2023/10/10 15:20:00;;;;;;;6.72;3.90;;;19.90;99.90;;;;;;5135608;28;20054;-62
2023/10/10 15:22:34;;;;;;;11.18;3.78;;;19.80;99.90;;;;;;5127237;28;20039;-61
2023/10/10 15:25:07;;;;;;;7.80;3.45;;;19.90;99.90;;;;;;5127983;28;20045;-62
2023/10/10 15:27:41;;;;;;;7.38;3.97;;;19.80;99.90;;;;;;5082303;28;20046;-62
2023/10/10 15:30:18;;;;;;;6.28;3.83;;;19.90;1.00;;;;;;5126264;28;20351;-62
2023/10/10 15:32:56;;;;;;;10.50;3.45;;;19.70;1.00;;;;;;5143752;28;20038;-61
2023/10/10 15:35:39;;;;;;;5.40;3.28;;;19.60;1.00;;;;;;5111617;28;20291;-62
2023/10/10 15:38:11;;;;;;;9.52;3.42;;;19.50;1.00;;;;;;5142741;28;20054;-62
2023/10/10 15:40:43;;;;;;;5.75;3.70;;;19.40;1.00;;;;;;5125243;28;20042;-61
2023/10/10 15:43:17;;;;;;;7.15;4.00;;;19.40;1.00;;;;;;5153934;28;20041;-61
2023/10/10 15:45:49;;;;;;;7.28;3.92;;;19.40;1.00;;;;;;5126724;28;20053;-62
2023/10/10 15:48:23;;;;;;;6.18;3.70;;;19.40;1.00;;;;;;5133247;28;20038;-63
2023/10/10 15:50:57;;;;;;;6.85;3.47;;;19.30;1.00;;;;;;5127754;28;20044;-63
2023/10/10 15:53:28;;;;;;;4.80;3.58;;;19.30;1.00;;;;;;5144885;28;20038;-63
2023/10/10 15:56:13;;;;;;;6.60;3.25;;;19.20;1.00;;;;;;5128153;28;20036;-63
2023/10/10 15:58:50;;;;;;;7.95;4.25;;;19.20;35.70;;;;;;5144261;28;20312;-63
2023/10/10 16:01:58;;;;;;;6.30;3.75;;;19.20;1.00;;;;;;5146547;28;20026;-62
2023/10/10 16:05:03;;;;;;;5.07;3.17;;;19.10;1.00;;;;;;5145577;28;20653;-62
2023/10/10 16:07:47;;;;;;;8.68;4.07;;;19.10;1.00;;;;;;5160973;28;20189;-62